Time;durP1;ratioP1;P1;durP2;ratioP2;P2;SDS_P1;SDS_P2;PMS_P1;PMS_P2;Temp;Humidity;BMP_temperature;BMP_pressure;BME280_temperature;BME280_humidity;BME280_pressure;Samples;Min_cycle;Max_cycle;Signal;HPM_P1;HPM_P2
2022/10/30 00:01:08;;;;;;;32.80;12.63;;;19.70;99.90;;;19.60;75.47;101415.38;5053362;28;20041;-68
2022/10/30 00:03:36;;;;;;;23.85;11.80;;;19.70;99.90;;;20.10;75.54;101513.06;5053320;28;20307;-68
2022/10/30 00:06:05;;;;;;;27.02;11.82;;;19.70;99.90;;;19.87;75.42;101472.66;5068569;28;20056;-68
2022/10/30 00:08:34;;;;;;;24.80;12.07;;;19.60;99.90;;;19.93;75.59;101488.56;5053173;28;20043;-68
2022/10/30 00:11:07;;;;;;;34.72;12.57;;;19.60;99.90;;;20.03;75.50;101504.34;5068750;28;20107;-68
2022/10/30 00:13:38;;;;;;;21.02;11.43;;;19.60;99.90;;;19.98;75.60;101497.34;5052649;28;20470;-67
2022/10/30 00:16:09;;;;;;;33.70;12.20;;;19.60;99.90;;;19.79;75.66;101489.00;5053171;28;20088;-69
2022/10/30 00:18:40;;;;;;;26.40;11.65;;;19.50;99.90;;;19.92;75.76;101514.53;5053124;28;20095;-68
2022/10/30 00:21:11;;;;;;;20.75;11.07;;;19.50;99.90;;;19.92;75.74;101519.91;5052868;28;20502;-68
2022/10/30 00:23:45;;;;;;;29.75;12.38;;;19.50;99.90;;;19.87;76.13;101516.50;5052868;28;20041;-68
2022/10/30 00:26:14;;;;;;;23.83;11.30;;;19.50;99.90;;;19.83;76.17;101511.28;5052924;28;20048;-68
2022/10/30 00:28:44;;;;;;;27.30;11.93;;;19.50;99.90;;;19.83;76.23;101522.91;5052906;28;20044;-67
2022/10/30 00:31:12;;;;;;;23.13;11.33;;;19.40;99.90;;;19.68;76.42;101496.53;5068204;28;20060;-67
2022/10/30 00:33:40;;;;;;;23.25;11.57;;;19.40;99.90;;;19.82;76.37;101514.91;5051455;28;20292;-68
2022/10/30 00:36:09;;;;;;;27.85;11.65;;;19.40;99.90;;;19.79;76.47;101510.50;5052937;28;20041;-68
2022/10/30 00:38:37;;;;;;;23.15;11.88;;;19.40;99.90;;;19.83;76.36;101512.16;5053091;28;20044;-67
2022/10/30 00:41:06;;;;;;;22.27;11.32;;;19.40;99.90;;;19.79;76.27;101506.00;5053070;28;20418;-68
2022/10/30 00:43:37;;;;;;;23.90;11.90;;;19.40;99.90;;;19.66;76.29;101491.22;5052545;28;20155;-68
2022/10/30 00:46:16;;;;;;;24.15;11.73;;;19.40;99.90;;;19.45;76.29;101450.75;5052555;28;20052;-68
2022/10/30 00:48:48;;;;;;;26.10;12.00;;;19.40;99.90;;;19.79;76.40;101507.81;5052629;28;20087;-68
2022/10/30 00:51:18;;;;;;;23.38;12.07;;;19.40;99.90;;;19.78;76.37;101506.06;5068149;28;20049;-68
2022/10/30 00:53:48;;;;;;;20.60;11.95;;;19.30;99.90;;;19.74;76.24;101501.72;5052605;28;20049;-68
2022/10/30 00:56:19;;;;;;;25.40;11.93;;;19.40;99.90;;;19.00;76.33;101374.34;5052583;28;20052;-68
2022/10/30 00:58:53;;;;;;;22.15;12.18;;;19.40;99.90;;;19.78;76.33;101520.34;5052418;28;20562;-67
2022/10/30 01:01:26;;;;;;;25.27;11.73;;;19.40;99.90;;;19.72;76.43;101503.56;5052510;28;20061;-68
2022/10/30 01:03:58;;;;;;;28.60;12.00;;;19.40;99.90;;;19.77;76.42;101523.97;5051254;28;20471;-68
2022/10/30 01:06:29;;;;;;;22.67;11.82;;;19.40;99.90;;;19.75;76.43;101517.78;5052515;28;20100;-68
2022/10/30 01:08:57;;;;;;;26.55;12.65;;;19.40;99.90;;;19.65;76.42;101508.25;5052473;28;20033;-68
2022/10/30 01:11:28;;;;;;;19.25;11.57;;;19.40;99.90;;;19.73;76.61;101530.38;5067814;28;20056;-68
2022/10/30 01:13:59;;;;;;;25.38;12.10;;;19.30;99.90;;;19.57;76.68;101502.22;5052372;28;20060;-67
2022/10/30 01:16:57;;;;;;;21.17;11.55;;;19.30;99.90;;;19.57;76.85;101506.72;5052559;28;20045;-68
2022/10/30 01:19:34;;;;;;;;;;;19.30;99.90;;;19.62;77.04;101523.56;5068159;28;20044;-68
2022/10/30 01:22:26;;;;;;;17.92;11.80;;;19.30;99.90;;;19.60;77.13;101525.44;5050885;28;19920;-68
2022/10/30 01:25:11;;;;;;;24.17;11.75;;;19.20;99.90;;;19.61;77.29;101533.44;5052777;28;20048;-68
2022/10/30 01:27:59;;;;;;;21.67;11.63;;;19.20;99.90;;;19.60;77.30;101528.13;5071535;28;20045;-67
2022/10/30 01:30:47;;;;;;;23.40;13.05;;;19.20;99.90;;;19.60;77.35;101526.31;5071908;28;20140;-68
2022/10/30 01:33:28;;;;;;;28.48;12.68;;;19.20;99.90;;;19.42;77.34;101501.81;5071751;28;20048;-67
2022/10/30 01:36:06;;;;;;;26.45;12.85;;;19.20;99.90;;;18.70;77.27;101370.78;5071358;28;20045;-68
2022/10/30 01:38:39;;;;;;;26.70;12.85;;;19.20;99.90;;;19.53;77.56;101530.09;5054960;28;20558;-67
2022/10/30 01:41:08;;;;;;;20.48;12.27;;;19.10;99.90;;;19.60;77.48;101517.38;5054803;28;20048;-68
2022/10/30 01:43:37;;;;;;;26.77;12.40;;;19.20;99.90;;;19.12;77.47;101449.97;5054643;28;20044;-68
2022/10/30 01:46:37;;;;;;;21.77;11.40;;;19.20;99.90;;;19.60;77.51;101528.13;5054692;28;20048;-68
2022/10/30 01:49:29;;;;;;;25.55;11.82;;;19.20;99.90;;;19.56;77.50;101531.81;5053124;28;20048;-68
2022/10/30 01:52:07;;;;;;;23.30;11.55;;;19.20;99.90;;;19.38;77.72;101505.53;5071278;28;20045;-68
2022/10/30 01:54:41;;;;;;;21.83;12.05;;;19.10;99.90;;;19.54;77.59;101518.44;5054546;28;20084;-68
2022/10/30 01:57:19;;;;;;;23.40;11.93;;;19.10;99.90;;;19.42;77.61;101517.94;5071062;28;20045;-68
2022/10/30 01:59:58;;;;;;;27.40;12.30;;;19.10;99.90;;;19.57;77.76;101529.06;5054596;28;20094;-68
2022/10/30 02:02:27;;;;;;;29.60;12.30;;;19.20;99.90;;;19.55;77.66;101530.06;5054307;28;20053;-69
2022/10/30 02:04:57;;;;;;;21.20;12.10;;;19.10;99.90;;;19.53;77.70;101515.81;5054306;28;20402;-68
2022/10/30 02:07:27;;;;;;;22.60;12.02;;;19.10;99.90;;;19.51;77.73;101529.25;5054188;28;20041;-68
2022/10/30 02:09:56;;;;;;;22.10;11.65;;;19.10;99.90;;;19.36;77.87;101496.66;5070997;28;20490;-68
2022/10/30 02:12:26;;;;;;;24.40;12.65;;;19.10;99.90;;;19.31;77.73;101494.09;5055816;28;20059;-68
2022/10/30 02:14:58;;;;;;;24.38;13.18;;;19.10;99.90;;;18.92;77.57;101445.19;5070823;28;20103;-68
2022/10/30 02:17:28;;;;;;;21.98;13.27;;;19.00;99.90;;;19.36;77.84;101528.84;5054095;28;20135;-68
2022/10/30 02:19:58;;;;;;;24.03;11.87;;;19.00;99.90;;;19.35;77.88;101525.31;5054145;28;20388;-69
2022/10/30 02:22:28;;;;;;;24.07;12.47;;;19.00;99.90;;;19.32;78.13;101529.81;5070753;28;20762;-68
2022/10/30 02:24:56;;;;;;;23.50;12.90;;;18.90;99.90;;;19.16;78.16;101512.44;5070624;28;20041;-68
2022/10/30 02:27:25;;;;;;;29.15;13.80;;;18.90;99.90;;;18.54;78.40;101398.97;5053882;28;20299;-68
2022/10/30 02:29:53;;;;;;;30.70;13.43;;;18.90;99.90;;;19.27;78.14;101546.06;5055068;28;20041;-67
2022/10/30 02:32:24;;;;;;;24.50;13.02;;;18.90;99.90;;;19.16;77.66;101524.06;5055038;28;20556;-68
2022/10/30 02:34:53;;;;;;;25.05;13.05;;;18.80;99.90;;;18.99;78.16;101536.19;5055234;28;20143;-68
2022/10/30 02:37:23;;;;;;;26.30;12.65;;;18.70;99.90;;;18.90;78.59;101530.16;5053132;28;20379;-68
2022/10/30 02:39:53;;;;;;;28.50;13.35;;;18.60;99.90;;;18.79;78.80;101513.47;5053696;28;20056;-68
2022/10/30 02:42:23;;;;;;;21.67;13.75;;;18.50;99.90;;;18.64;78.71;101494.28;5053613;28;20451;-68
2022/10/30 02:44:53;;;;;;;29.98;13.60;;;18.50;99.90;;;18.76;78.98;101544.84;5070268;28;20051;-67
2022/10/30 02:47:22;;;;;;;24.48;13.05;;;18.40;99.90;;;18.57;79.53;101531.06;5053653;28;20132;-68
2022/10/30 02:49:50;;;;;;;21.80;12.70;;;18.20;99.90;;;18.36;79.99;101509.28;5053290;28;20049;-68
2022/10/30 02:52:19;;;;;;;24.38;12.25;;;18.10;99.90;;;18.18;80.41;101499.91;5053501;28;20068;-68
2022/10/30 02:54:47;;;;;;;24.00;13.50;;;17.90;99.90;;;18.23;80.76;101531.94;5053417;28;20045;-68
2022/10/30 02:57:17;;;;;;;26.85;13.02;;;17.80;99.90;;;18.14;81.64;101538.41;5053225;28;20045;-67
2022/10/30 02:59:45;;;;;;;24.37;13.17;;;17.70;99.90;;;18.14;82.03;101535.72;5053155;28;20144;-68
2022/10/30 03:02:13;;;;;;;25.83;13.77;;;17.70;99.90;;;18.15;82.38;101532.16;5070042;28;20315;-68
2022/10/30 03:04:42;;;;;;;22.92;13.50;;;17.80;99.90;;;17.90;82.70;101502.41;5053216;28;20044;-68
2022/10/30 03:07:11;;;;;;;25.48;13.00;;;17.80;99.90;;;17.65;83.45;101487.84;5053147;28;20049;-67
2022/10/30 03:09:40;;;;;;;27.67;13.48;;;17.50;99.90;;;17.82;84.27;101522.25;5054397;28;20462;-67
2022/10/30 03:12:08;;;;;;;32.40;14.52;;;17.50;99.90;;;16.46;84.77;101286.47;5054293;28;20453;-68
2022/10/30 03:14:38;;;;;;;29.27;14.68;;;17.50;99.90;;;17.94;85.13;101521.97;5069848;28;20132;-68
2022/10/30 03:17:06;;;;;;;26.88;14.20;;;17.60;99.90;;;18.01;85.10;101523.56;5053068;28;20048;-68
2022/10/30 03:19:37;;;;;;;28.67;14.50;;;17.70;99.90;;;17.94;84.69;101504.09;5052998;28;20072;-68
2022/10/30 03:22:07;;;;;;;20.73;14.20;;;17.70;99.90;;;18.05;84.82;101519.91;5052759;28;20076;-68
2022/10/30 03:24:38;;;;;;;25.85;13.63;;;17.80;99.90;;;18.03;84.58;101524.41;5052635;28;20133;-68
2022/10/30 03:27:07;;;;;;;28.77;15.40;;;17.80;99.90;;;18.01;85.34;101523.56;5069808;28;20091;-68
2022/10/30 03:29:35;;;;;;;35.03;14.77;;;17.80;99.90;;;17.91;85.83;101512.19;5069444;28;20045;-68
2022/10/30 03:32:10;;;;;;;28.73;16.13;;;17.70;99.90;;;17.77;86.44;101487.56;5069360;28;20122;-68
2022/10/30 03:34:46;;;;;;;31.17;14.82;;;17.70;99.90;;;17.83;87.02;101507.94;5052654;28;20140;-68
2022/10/30 03:37:14;;;;;;;31.42;14.90;;;17.70;99.90;;;17.50;86.55;101441.88;5053688;28;20498;-69
2022/10/30 03:39:42;;;;;;;32.03;14.90;;;17.70;99.90;;;17.80;86.70;101503.56;5052679;28;20037;-68
2022/10/30 03:42:11;;;;;;;28.85;14.82;;;17.70;99.90;;;17.92;87.00;101513.94;5052614;28;20056;-68
2022/10/30 03:44:39;;;;;;;29.67;14.23;;;17.70;99.90;;;17.95;87.13;101531.75;5052463;28;20037;-68
2022/10/30 03:47:09;;;;;;;30.20;14.63;;;17.60;99.90;;;17.94;87.14;101538.88;5069062;28;20487;-68
2022/10/30 03:49:45;;;;;;;37.40;13.98;;;17.60;99.90;;;17.95;87.27;101535.31;5067915;28;20087;-69
2022/10/30 03:52:18;;;;;;;28.75;13.93;;;17.60;99.90;;;17.96;87.36;101537.06;5052413;28;20086;-68
2022/10/30 03:54:48;;;;;;;30.67;13.55;;;17.60;99.90;;;17.66;87.18;101486.06;5053619;28;20053;-68
2022/10/30 03:57:19;;;;;;;26.42;13.73;;;17.60;99.90;;;17.82;87.28;101507.09;5052270;28;20052;-68
2022/10/30 04:00:12;;;;;;;29.20;13.65;;;17.70;99.90;;;18.02;87.27;101536.91;5047785;28;20057;-68
2022/10/30 04:02:46;;;;;;;26.10;13.55;;;17.70;99.90;;;18.04;87.09;101534.19;5053867;28;20441;-68
2022/10/30 04:05:18;;;;;;;28.38;14.45;;;17.70;99.90;;;18.05;87.00;101541.31;5051857;28;20041;-68
2022/10/30 04:07:47;;;;;;;26.98;13.27;;;17.70;99.90;;;17.70;87.02;101487.75;5052041;28;20480;-68
2022/10/30 04:10:16;;;;;;;29.70;14.10;;;17.70;99.90;;;17.23;86.81;101389.00;5068473;28;20076;-68
2022/10/30 04:12:51;;;;;;;27.17;14.00;;;17.70;99.90;;;17.93;87.07;101530.91;5051794;28;20140;-68
2022/10/30 04:15:20;;;;;;;28.00;14.35;;;17.70;99.90;;;17.93;87.07;101521.06;5068398;28;20053;-68
2022/10/30 04:17:50;;;;;;;28.98;14.25;;;17.60;99.90;;;17.64;87.37;101482.53;5068512;28;20051;-68
2022/10/30 04:20:21;;;;;;;26.88;15.05;;;17.60;99.90;;;17.68;88.00;101501.16;5068444;28;20106;-68
2022/10/30 04:22:56;;;;;;;28.33;14.37;;;17.60;99.90;;;17.82;87.88;101516.91;5053050;28;20140;-68
2022/10/30 04:25:27;;;;;;;26.33;13.70;;;17.50;99.90;;;17.21;88.42;101437.13;5051439;28;20052;-68
2022/10/30 04:27:58;;;;;;;33.42;14.77;;;17.30;99.90;;;17.46;89.84;101512.38;5051738;28;20057;-69
2022/10/30 04:30:27;;;;;;;30.67;14.02;;;17.10;99.90;;;17.17;90.52;101488.06;5052842;28;20079;-68
2022/10/30 04:32:58;;;;;;;32.33;13.98;;;17.00;99.90;;;17.24;91.46;101511.94;5051487;28;20053;-68
2022/10/30 04:35:31;;;;;;;34.63;14.93;;;16.90;99.90;;;17.09;91.89;101504.25;5051771;28;20422;-67
2022/10/30 04:38:02;;;;;;;31.65;15.90;;;16.80;99.90;;;16.85;92.45;101476.25;5068023;28;20053;-68
2022/10/30 04:40:36;;;;;;;29.52;14.70;;;16.70;99.90;;;16.73;92.83;101470.25;5051682;28;20521;-68
2022/10/30 04:43:08;;;;;;;31.50;15.65;;;16.60;99.90;;;16.76;92.99;101487.09;5051555;28;20107;-68
2022/10/30 04:45:37;;;;;;;29.05;15.82;;;16.50;99.90;;;16.58;93.92;101499.94;5052628;28;20388;-68
2022/10/30 04:48:11;;;;;;;30.08;15.13;;;16.30;99.90;;;16.29;94.48;101481.75;5068010;28;20044;-68
2022/10/30 04:50:39;;;;;;;35.88;16.23;;;16.20;99.90;;;16.36;94.57;101486.06;5051319;28;20118;-68
2022/10/30 04:53:12;;;;;;;32.78;15.55;;;16.10;99.90;;;16.59;94.49;101512.41;5052525;28;20052;-68
2022/10/30 04:55:42;;;;;;;31.98;16.05;;;16.20;99.90;;;16.61;94.04;101499.84;5051316;28;20051;-68
2022/10/30 04:58:12;;;;;;;;;;;16.30;99.90;;;16.56;93.59;101485.72;5051746;28;20045;-68
2022/10/30 05:00:43;;;;;;;30.52;15.90;;;16.40;99.90;;;16.64;93.22;101513.19;5050878;28;20011;-68
2022/10/30 05:03:19;;;;;;;30.02;17.08;;;16.30;99.90;;;16.42;93.25;101485.06;5052701;28;20049;-68
2022/10/30 05:05:48;;;;;;;26.83;15.10;;;16.30;99.90;;;16.39;93.35;101471.78;5051155;28;20561;-68
2022/10/30 05:08:18;;;;;;;29.35;15.38;;;16.30;99.90;;;16.71;93.09;101526.38;5067870;28;20044;-68
2022/10/30 05:10:46;;;;;;;24.67;14.70;;;16.30;99.90;;;16.57;92.81;101507.06;5067794;28;20067;-68
2022/10/30 05:13:14;;;;;;;24.60;15.05;;;16.30;99.90;;;16.58;93.35;101507.94;5067676;28;20076;-68
2022/10/30 05:15:43;;;;;;;25.58;15.18;;;16.20;99.90;;;16.68;93.18;101518.44;5050995;28;20059;-68
2022/10/30 05:18:11;;;;;;;26.63;14.85;;;16.30;99.90;;;16.75;92.96;101513.84;5051186;28;20083;-68
2022/10/30 05:20:43;;;;;;;26.60;14.77;;;16.30;99.90;;;16.85;92.51;101508.31;5052279;28;20491;-68
2022/10/30 05:23:11;;;;;;;26.95;14.80;;;16.40;99.90;;;16.87;92.21;101506.47;5051050;28;20140;-68
2022/10/30 05:25:39;;;;;;;30.77;14.48;;;16.50;99.90;;;16.89;91.80;101499.31;5052067;28;20394;-68
2022/10/30 05:28:10;;;;;;;25.60;14.67;;;16.60;99.90;;;16.80;91.79;101488.78;5050951;28;20057;-67
2022/10/30 05:30:45;;;;;;;27.30;15.05;;;16.60;99.90;;;16.85;91.81;101508.31;5051097;28;20307;-68
2022/10/30 05:33:38;;;;;;;26.98;15.50;;;16.50;99.90;;;16.62;91.93;101473.16;5067580;28;20053;-67
2022/10/30 05:36:09;;;;;;;33.05;15.43;;;16.50;99.90;;;16.78;91.89;101516.47;5052129;28;20090;-68
2022/10/30 05:38:37;;;;;;;30.00;13.95;;;16.50;99.90;;;16.84;91.97;101530.56;5051008;28;20494;-67
2022/10/30 05:41:09;;;;;;;31.08;15.02;;;16.60;99.90;;;16.92;91.63;101525.97;5067541;28;20099;-68
2022/10/30 05:43:38;;;;;;;27.75;15.35;;;16.60;99.90;;;16.94;91.20;101524.16;5067585;28;20067;-67
2022/10/30 05:46:08;;;;;;;32.25;15.43;;;16.70;99.90;;;16.93;90.92;101511.72;5067328;28;20037;-68
2022/10/30 05:48:36;;;;;;;27.80;14.98;;;16.70;99.90;;;16.95;90.78;101525.03;5050264;28;20089;-68
2022/10/30 05:51:07;;;;;;;26.50;14.25;;;16.60;99.90;;;16.84;90.58;101535.91;5067740;28;20048;-68
2022/10/30 05:53:39;;;;;;;28.38;15.38;;;16.50;99.90;;;16.80;90.93;101526.19;5050722;28;20049;-68
2022/10/30 05:56:08;;;;;;;29.45;13.90;;;16.50;99.90;;;16.66;91.08;101506.00;5051138;28;20498;-68
2022/10/30 05:58:37;;;;;;;28.20;15.43;;;16.40;99.90;;;16.71;91.36;101520.16;5051944;28;20055;-68
2022/10/30 06:01:07;;;;;;;29.00;15.05;;;16.30;99.90;;;16.58;92.02;101514.19;5067304;28;20060;-68
2022/10/30 06:03:43;;;;;;;26.15;15.10;;;16.20;99.90;;;16.41;93.19;101508.25;5050873;28;20056;-68
2022/10/30 06:06:14;;;;;;;27.25;15.25;;;16.00;99.90;;;16.40;93.80;101519.81;5067485;28;20045;-68
2022/10/30 06:08:45;;;;;;;30.08;14.50;;;16.00;99.90;;;16.52;93.78;101524.09;5050587;28;20045;-68
2022/10/30 06:11:29;;;;;;;28.60;14.95;;;16.10;99.90;;;16.56;93.55;101520.44;5067615;28;20084;-68
2022/10/30 06:13:59;;;;;;;25.13;14.88;;;16.20;99.90;;;16.68;93.22;101530.91;5053956;28;20135;-68
2022/10/30 06:16:40;;;;;;;24.25;14.18;;;16.30;99.90;;;16.61;92.86;101518.56;5054378;28;20712;-68
2022/10/30 06:19:27;;;;;;;31.83;14.88;;;16.40;99.90;;;16.40;92.77;101484.22;5055305;28;20044;-68
2022/10/30 06:22:05;;;;;;;27.00;14.25;;;16.40;99.90;;;16.68;92.67;101531.81;5070559;28;20088;-68
2022/10/30 06:24:42;;;;;;;31.58;14.48;;;16.30;99.90;;;16.64;92.39;101524.75;5054074;28;20560;-67
2022/10/30 06:27:11;;;;;;;30.50;14.60;;;16.40;99.90;;;16.62;91.99;101536.38;5055325;28;20072;-68
2022/10/30 06:29:39;;;;;;;25.30;14.60;;;16.30;99.90;;;16.44;92.35;101521.53;5070421;28;20041;-67
2022/10/30 06:32:08;;;;;;;24.67;14.23;;;16.10;99.90;;;16.25;93.23;101525.44;5070444;28;20110;-68
2022/10/30 06:34:37;;;;;;;24.60;15.20;;;15.90;99.90;;;15.93;93.87;101477.91;5053617;28;20556;-68
2022/10/30 06:37:06;;;;;;;29.42;14.63;;;15.80;99.90;;;15.91;94.41;101503.72;5053904;28;20068;-67
2022/10/30 06:39:35;;;;;;;24.10;13.15;;;15.70;99.90;;;16.09;95.10;101524.81;5070515;28;20076;-68
2022/10/30 06:42:26;;;;;;;25.08;14.60;;;15.70;99.90;;;16.01;95.37;101510.69;5070274;28;20067;-68
2022/10/30 06:45:11;;;;;;;30.48;14.85;;;15.70;99.90;;;16.03;95.58;101499.97;5070062;28;20041;-68
2022/10/30 06:47:40;;;;;;;27.45;15.27;;;15.70;99.90;;;15.77;95.49;101475.53;5053646;28;20049;-68
2022/10/30 06:50:12;;;;;;;28.45;14.20;;;15.60;99.90;;;16.03;95.93;101514.22;5053308;28;20525;-68
2022/10/30 06:52:41;;;;;;;26.60;14.63;;;15.60;99.90;;;15.96;96.07;101511.69;5053819;28;20456;-68
2022/10/30 06:55:11;;;;;;;29.48;15.85;;;15.60;99.90;;;15.83;96.71;101483.44;5055212;28;20045;-68
2022/10/30 06:57:56;;;;;;;34.35;15.23;;;15.60;99.90;;;15.90;96.86;101506.44;5053761;28;20098;-68
2022/10/30 07:00:38;;;;;;;28.98;16.58;;;15.50;99.90;;;15.98;97.51;101502.75;5053400;28;20049;-67
2022/10/30 07:03:23;;;;;;;27.05;15.52;;;15.60;99.90;;;16.06;97.25;101515.97;5054584;28;20040;-68
2022/10/30 07:05:54;;;;;;;26.73;15.75;;;15.60;99.90;;;16.28;97.03;101520.91;5053072;28;20048;-68
2022/10/30 07:08:23;;;;;;;;;;;15.80;99.90;;;16.26;95.94;101482.69;5055101;28;20073;-68
2022/10/30 07:10:51;;;;;;;32.47;15.40;;;16.10;99.90;;;16.65;94.57;101526.50;5053055;28;19921;-68
2022/10/30 07:13:29;;;;;;;28.77;15.68;;;16.30;99.90;;;16.67;93.86;101524.69;5069674;28;20049;-68
2022/10/30 07:16:07;;;;;;;27.60;15.20;;;16.30;99.90;;;16.55;93.52;101503.53;5052774;28;20156;-68
2022/10/30 07:18:38;;;;;;;32.40;15.80;;;16.30;99.90;;;16.51;94.31;101517.84;5069469;28;20083;-68
2022/10/30 07:21:09;;;;;;;29.80;16.13;;;16.10;99.90;;;16.49;94.80;101525.00;5069693;28;20041;-68
2022/10/30 07:23:38;;;;;;;25.65;15.38;;;16.10;99.90;;;16.58;94.77;101521.31;5069488;28;20154;-68
2022/10/30 07:26:19;;;;;;;35.42;15.75;;;16.10;99.90;;;16.51;94.54;101525.88;5052658;28;20132;-67
2022/10/30 07:28:49;;;;;;;30.65;16.08;;;16.10;99.90;;;16.61;94.81;101527.47;5053843;28;20041;-68
2022/10/30 07:31:20;;;;;;;24.20;15.20;;;16.20;99.90;;;16.61;94.37;101503.41;5069505;28;20067;-68
2022/10/30 07:34:28;;;;;;;33.22;16.73;;;16.40;99.90;;;17.01;93.97;101532.94;5069256;28;20071;-68
2022/10/30 07:37:16;;;;;;;31.73;16.38;;;16.60;99.90;;;17.39;93.42;101534.78;5053905;28;20083;-67
2022/10/30 07:39:50;;;;;;;26.20;16.13;;;17.00;99.90;;;17.60;91.72;101535.25;5053743;28;20037;-68
2022/10/30 07:42:26;;;;;;;24.13;16.15;;;17.20;99.90;;;17.72;90.63;101521.59;5052523;28;20048;-67
2022/10/30 07:45:11;;;;;;;25.55;15.10;;;17.40;99.90;;;17.48;90.20;101505.19;5068978;28;20053;-67
2022/10/30 07:48:15;;;;;;;28.85;15.23;;;17.30;99.90;;;17.52;90.73;101509.56;5071279;28;20513;-68
2022/10/30 07:50:59;;;;;;;26.95;15.82;;;17.30;99.90;;;17.74;91.26;101524.22;5052032;28;20045;-67
2022/10/30 07:53:28;;;;;;;22.38;15.43;;;17.30;99.90;;;17.52;91.37;101493.50;5068835;28;20053;-68
2022/10/30 07:55:58;;;;;;;30.20;15.67;;;17.30;99.90;;;17.95;91.60;101526.38;5053411;28;20040;-68
2022/10/30 07:58:46;;;;;;;37.38;15.82;;;17.50;99.90;;;18.08;89.90;101498.38;5053200;28;20049;-68
2022/10/30 08:01:35;;;;;;;26.98;14.30;;;17.90;99.90;;;18.48;88.54;101552.75;5053490;28;20064;-68
2022/10/30 08:04:19;;;;;;;28.42;15.52;;;18.10;99.90;;;18.50;88.33;101540.22;5051869;28;20045;-68
2022/10/30 08:06:47;;;;;;;23.80;13.98;;;18.30;99.90;;;18.73;88.35;101553.88;5068760;28;20102;-68
2022/10/30 08:09:16;;;;;;;27.40;15.32;;;18.40;99.90;;;18.81;88.47;101550.97;5052014;28;20498;-68
2022/10/30 08:11:47;;;;;;;;;;;18.50;99.90;;;18.75;88.55;101556.50;5052422;28;20073;-68
2022/10/30 08:14:16;;;;;;;27.33;15.25;;;18.40;99.90;;;18.82;89.32;101558.97;5052010;28;20283;-68
2022/10/30 08:16:46;;;;;;;26.63;14.90;;;18.40;99.90;;;18.84;89.07;101561.59;5051703;28;20072;-68
2022/10/30 08:19:14;;;;;;;26.50;14.45;;;18.40;99.90;;;19.19;89.21;101557.94;5051617;28;20053;-67
2022/10/30 08:21:43;;;;;;;22.15;13.73;;;18.80;99.90;;;19.25;87.03;101564.03;5068400;28;20483;-68
2022/10/30 08:24:16;;;;;;;22.85;13.95;;;18.90;99.90;;;19.57;85.60;101585.44;5051578;28;20073;-68
2022/10/30 08:26:47;;;;;;;;;;;19.20;99.90;;;19.44;84.13;101575.13;5068279;28;20053;-68
2022/10/30 08:29:15;;;;;;;29.40;15.13;;;19.20;99.90;;;19.40;84.56;101578.81;5068079;28;19925;-68
2022/10/30 08:31:49;;;;;;;30.20;15.23;;;19.20;99.90;;;19.14;85.06;101566.13;5051307;28;20404;-67
2022/10/30 08:34:25;;;;;;;27.92;16.33;;;18.90;99.90;;;18.70;85.54;101527.13;5052732;28;20060;-67
2022/10/30 08:36:55;;;;;;;25.10;14.95;;;18.60;99.90;;;18.51;86.37;101491.03;5068339;28;20135;-67
2022/10/30 08:39:24;;;;;;;29.70;16.13;;;18.60;99.90;;;17.02;86.81;101278.97;5051516;28;20140;-68
2022/10/30 08:42:11;;;;;;;29.23;16.30;;;18.30;99.90;;;18.60;87.23;101557.78;5052938;28;20067;-67
2022/10/30 08:44:43;;;;;;;26.23;15.98;;;18.30;99.90;;;18.67;87.45;101572.78;5052751;28;20037;-68
2022/10/30 08:47:22;;;;;;;27.98;16.60;;;18.50;99.90;;;18.79;87.50;101571.59;5052549;28;20135;-68
2022/10/30 08:49:51;;;;;;;29.80;17.08;;;18.50;99.90;;;18.92;87.50;101567.66;5067813;28;20048;-68
2022/10/30 08:52:22;;;;;;;28.33;16.60;;;18.60;99.90;;;18.95;87.36;101566.69;5067823;28;20053;-68
2022/10/30 08:54:55;;;;;;;25.08;16.75;;;18.70;99.90;;;19.00;86.70;101545.97;5068005;28;20384;-67
2022/10/30 08:57:26;;;;;;;25.92;16.17;;;18.90;99.90;;;19.39;86.58;101575.28;5051370;28;20053;-68
2022/10/30 08:59:56;;;;;;;26.10;16.33;;;19.10;99.90;;;19.45;85.18;101556.28;5051296;28;20052;-68
2022/10/30 09:02:46;;;;;;;27.10;17.02;;;19.30;99.90;;;19.95;83.96;101578.91;5052065;28;20059;-68
2022/10/30 09:05:33;;;;;;;28.70;16.58;;;19.60;99.90;;;20.16;83.44;101548.66;5052609;28;20524;-68
2022/10/30 09:08:17;;;;;;;27.95;15.98;;;20.10;99.90;;;20.66;81.54;101585.50;5052290;28;20052;-68
2022/10/30 09:11:06;;;;;;;27.33;15.77;;;20.40;99.90;;;20.76;79.71;101547.53;5050926;28;20045;-67
2022/10/30 09:13:34;;;;;;;25.27;15.57;;;20.70;99.90;;;20.90;78.69;101523.72;5050932;28;20451;-68
2022/10/30 09:16:06;;;;;;;31.15;14.93;;;21.00;99.90;;;21.54;77.46;101588.56;5050957;28;20045;-68
2022/10/30 09:18:38;;;;;;;26.67;15.00;;;21.30;99.90;;;21.60;76.06;101557.84;5067644;28;20506;-67
2022/10/30 09:21:06;;;;;;;24.55;15.30;;;21.50;99.90;;;22.05;74.59;101587.50;5067583;28;20045;-68
2022/10/30 09:23:42;;;;;;;27.50;15.32;;;21.70;99.90;;;22.15;74.07;101584.38;5067664;28;20048;-68
2022/10/30 09:26:30;;;;;;;29.67;14.25;;;22.00;99.90;;;22.38;73.13;101572.63;5051987;28;20132;-67
2022/10/30 09:29:04;;;;;;;28.75;15.20;;;22.20;99.90;;;22.57;72.09;101575.50;5050876;28;20460;-68
2022/10/30 09:31:55;;;;;;;27.25;14.00;;;22.40;99.90;;;22.74;71.03;101564.84;5048625;28;20057;-68
2022/10/30 09:34:27;;;;;;;29.92;13.38;;;22.60;99.90;;;22.96;69.94;101576.44;5067578;28;20060;-68
2022/10/30 09:37:17;;;;;;;25.55;13.38;;;22.70;99.90;;;23.20;68.52;101586.16;5054589;28;20529;-68
2022/10/30 09:39:50;;;;;;;29.67;14.25;;;22.90;99.90;;;23.41;67.83;101590.63;5067400;28;20049;-68
2022/10/30 09:42:43;;;;;;;27.48;13.20;;;23.10;99.90;;;23.54;67.69;101590.94;5050385;28;20049;-68
2022/10/30 09:45:52;;;;;;;26.20;13.68;;;23.30;99.90;;;23.54;65.97;101570.19;5050651;28;20041;-68
2022/10/30 09:49:17;;;;;;;25.20;12.80;;;23.50;99.90;;;23.88;66.00;101583.88;5053171;28;20052;-67
2022/10/30 09:52:22;;;;;;;26.35;13.40;;;23.60;99.90;;;24.12;65.51;101596.22;5011031;28;20053;-68
2022/10/30 09:55:18;;;;;;;25.55;12.93;;;23.80;99.90;;;24.20;64.67;101586.88;5053638;28;20085;-68
2022/10/30 09:57:57;;;;;;;26.92;13.52;;;23.90;99.90;;;24.20;63.65;101581.47;5054392;28;20045;-67
2022/10/30 10:00:34;;;;;;;30.08;14.73;;;23.90;99.90;;;24.18;63.76;101585.09;5054480;28;20055;-67
2022/10/30 10:03:39;;;;;;;24.08;12.68;;;23.90;99.90;;;24.29;63.76;101578.28;5070899;28;20140;-68
2022/10/30 10:06:37;;;;;;;24.67;13.23;;;24.00;99.90;;;24.11;63.34;101544.94;5061869;28;20053;-68
2022/10/30 10:09:19;;;;;;;23.38;12.77;;;24.20;99.90;;;24.58;63.21;101589.41;5054086;28;20110;-67
2022/10/30 10:12:05;;;;;;;27.98;12.43;;;24.20;99.90;;;24.34;62.88;101543.75;5055328;28;20041;-67
2022/10/30 10:14:39;;;;;;;26.95;12.45;;;24.30;99.90;;;24.68;62.77;101585.25;5055540;28;20126;-67
2022/10/30 10:17:13;;;;;;;23.88;12.05;;;24.40;99.90;;;24.43;62.06;101548.72;5055286;28;20037;-68
2022/10/30 10:19:49;;;;;;;24.30;12.45;;;24.40;99.90;;;24.76;61.75;101591.19;5055277;28;20063;-67
2022/10/30 10:22:22;;;;;;;27.30;12.32;;;24.50;99.90;;;24.74;61.81;101560.63;5055307;28;20087;-67
2022/10/30 10:24:54;;;;;;;20.73;11.32;;;24.60;99.90;;;25.13;61.74;101600.09;5055201;28;20044;-67
2022/10/30 10:27:41;;;;;;;23.52;11.82;;;24.80;99.90;;;25.21;61.02;101592.44;5054955;28;20045;-67
2022/10/30 10:30:15;;;;;;;24.45;11.45;;;24.90;99.90;;;25.22;60.64;101576.13;5055158;28;20075;-67